Aviation Digital Data Service (ADDS)

Output produced by METARs form (1328 UTC 25 February 2018)
found at http://aviationweather.gov/adds/metars/
 
KSGR 251253Z 04011KT 10SM -RA OVC015 16/13 A2996 RMK AO2 SLP147 P0000 T01610128